Terminal Aerodrome Forecast
Issued by NWS

Home | Current Version | Previous Version | Text Only | Print | Product List | Glossary Off
Versions: 1 2 3 4 5 6 7 8 9 10 11 12 13 14 15 16 17

000
FTUS43 KTOP 140520
TAFFOE
TAF
KFOE 140520Z 1406/1506 33006KT P6SM SCT050
     FM140900 VRB05KT P6SM VCSH BKN060
     FM141000 15006KT P6SM -SHRA VCTS OVC040CB
     FM141700 19014G23KT P6SM VCSH BKN090
     FM142300 29016G28KT P6SM VCTS OVC040CB=

USA.gov is the U.S. government's official web portal to all federal, state and local government web resources and services.